Time;durP1;ratioP1;P1;durP2;ratioP2;P2;SDS_P1;SDS_P2;PMS_P1;PMS_P2;Temp;Humidity;BMP_temperature;BMP_pressure;BME280_temperature;BME280_humidity;BME280_pressure;Samples;Min_cycle;Max_cycle;Signal;HPM_P1;HPM_P2
2022/05/25 00:00:18;;;;;;;;;;;;;;;;;;5056374;28;19990;-81
2022/05/25 00:02:44;;;;;;;;;;;;;;;;;;5058282;28;20385;-81
2022/05/25 00:05:12;;;;;;;;;;;;;;;;;;5041276;28;19919;-83
2022/05/25 00:07:38;;;;;;;;;;;;;;;;;;5040700;28;20442;-79
2022/05/25 00:10:03;;;;;;;;;;;;;;;;;;5040785;28;20303;-79
2022/05/25 00:12:28;;;;;;;;;;;;;;;;;;5038442;28;19905;-78
2022/05/25 00:14:54;;;;;;;;;;;;;;;;;;5071070;28;19909;-79
2022/05/25 00:17:20;;;;;;;;;;;;;;;;;;5044002;28;19909;-79
2022/05/25 00:20:01;;;;;;;;;;;;;;;;;;5029910;28;19909;-78
2022/05/25 00:22:26;;;;;;;;;;;;;;;;;;5026217;28;20394;-78
2022/05/25 00:24:52;;;;;;;;;;;;;;;;;;5037921;28;19912;-79
2022/05/25 00:27:17;;;;;;;;;;;;;;;;;;5034192;28;19958;-80
2022/05/25 00:29:45;;;;;;;;;;;;;;;;;;5026703;28;19952;-79
2022/05/25 00:32:11;;;;;;;;;;;;;;;;;;5058540;28;19920;-79
2022/05/25 00:34:36;;;;;;;;;;;;;;;;;;5033699;28;20389;-80
2022/05/25 00:37:02;;;;;;;;;;;;;;;;;;5040270;28;19908;-80
2022/05/25 00:39:27;;;;;;;;;;;;;;;;;;5040585;28;19998;-79
2022/05/25 00:41:52;;;;;;;;;;;;;;;;;;5054442;28;19908;-79
2022/05/25 00:44:18;;;;;;;;;;;;;;;;;;5055437;28;19905;-82
2022/05/25 00:46:43;;;;;;;;;;;;;;;;;;5055576;28;19944;-78
2022/05/25 00:49:08;;;;;;;;;;;;;;;;;;5053945;28;19976;-81
2022/05/25 00:51:34;;;;;;;;;;;;;;;;;;5036242;28;19916;-80
2022/05/25 00:53:59;;;;;;;;;;;;;;;;;;5054850;28;19909;-79
2022/05/25 00:56:25;;;;;;;;;;;;;;;;;;5036560;28;20272;-80
2022/05/25 00:58:50;;;;;;;;;;;;;;;;;;5036648;28;19905;-79
2022/05/25 01:01:16;;;;;;;;;;;;;;;;;;5054419;28;19909;-79
2022/05/25 01:03:41;;;;;;;;;;;;;;;;;;5022157;28;20003;-77
2022/05/25 01:06:07;;;;;;;;;;;;;;;;;;5043827;28;19916;-79
2022/05/25 01:08:32;;;;;;;;;;;;;;;;;;5037150;28;19962;-79
2022/05/25 01:10:57;;;;;;;;;;;;;;;;;;5068368;22;19920;-87
2022/05/25 01:13:23;;;;;;;;;;;;;;;;;;5038478;28;20272;-85
2022/05/25 01:15:48;;;;;;;;;;;;;;;;;;5057189;28;20367;-82
2022/05/25 01:18:13;;;;;;;;;;;;;;;;;;5036908;28;20382;-83
2022/05/25 01:20:40;;;;;;;;;;;;;;;;;;5055635;28;20371;-82
2022/05/25 01:23:05;;;;;;;;;;;;;;;;;;5060416;28;20016;-82
2022/05/25 01:25:30;;;;;;;;;;;;;;;;;;5040389;28;20396;-85
2022/05/25 01:27:56;;;;;;;;;;;;;;;;;;5039524;28;20271;-81
2022/05/25 01:30:21;;;;;;;;;;;;;;;;;;5056722;28;19908;-83
2022/05/25 01:32:47;;;;;;;;;;;;;;;;;;5058950;28;19966;-83
2022/05/25 01:35:12;;;;;;;;;;;;;;;;;;5053257;28;20216;-84
2022/05/25 01:37:38;;;;;;;;;;;;;;;;;;5071327;28;19908;-84
2022/05/25 01:40:03;;;;;;;;;;;;;;;;;;5036340;28;19913;-82
2022/05/25 01:42:28;;;;;;;;;;;;;;;;;;5036624;28;20278;-82
2022/05/25 01:44:54;;;;;;;;;;;;;;;;;;5063533;28;19923;-83
2022/05/25 01:47:19;;;;;;;;;;;;;;;;;;5069479;28;19912;-82
2022/05/25 01:49:45;;;;;;;;;;;;;;;;;;5049302;28;19937;-83
2022/05/25 01:52:10;;;;;;;;;;;;;;;;;;5022044;28;19966;-84
2022/05/25 01:54:35;;;;;;;;;;;;;;;;;;5037417;28;20363;-82
2022/05/25 01:57:01;;;;;;;;;;;;;;;;;;5027743;28;19965;-84
2022/05/25 01:59:26;;;;;;;;;;;;;;;;;;5032233;28;19909;-84
2022/05/25 02:04:19;;;;;;;;;;;;;;;;;;5064182;28;19915;-84
2022/05/25 02:04:37;;;;;;;;;;;;;;;;;;5037747;28;19916;-84
2022/05/25 02:07:02;;;;;;;;;;;;;;;;;;5032705;28;20367;-84
2022/05/25 02:09:28;;;;;;;;;;;;;;;;;;5067291;28;19908;-83
2022/05/25 02:11:53;;;;;;;;;;;;;;;;;;5068213;28;19919;-86
2022/05/25 02:14:19;;;;;;;;;;;;;;;;;;5017717;28;19912;-84
2022/05/25 02:16:44;;;;;;;;;;;;;;;;;;5011769;28;20307;-84
2022/05/25 02:19:09;;;;;;;;;;;;;;;;;;5020310;28;19909;-85
2022/05/25 02:21:35;;;;;;;;;;;;;;;;;;5043987;28;19937;-84
2022/05/25 02:24:01;;;;;;;;;;;;;;;;;;5039189;28;19919;-85
2022/05/25 02:26:28;;;;;;;;;;;;;;;;;;5052207;28;19913;-81
2022/05/25 02:28:53;;;;;;;;;;;;;;;;;;5055522;28;19918;-83
2022/05/25 02:31:18;;;;;;;;;;;;;;;;;;5070505;28;20502;-84
2022/05/25 02:33:44;;;;;;;;;;;;;;;;;;5071959;28;20286;-83
2022/05/25 02:36:09;;;;;;;;;;;;;;;;;;5061381;28;19909;-83
2022/05/25 02:38:37;;;;;;;;;;;;;;;;;;5011184;28;19913;-83
2022/05/25 02:41:02;;;;;;;;;;;;;;;;;;5071519;28;19939;-83
2022/05/25 02:43:27;;;;;;;;;;;;;;;;;;5066546;28;19912;-83
2022/05/25 02:45:53;;;;;;;;;;;;;;;;;;5072955;28;19915;-83
2022/05/25 02:48:18;;;;;;;;;;;;;;;;;;5065982;28;19912;-83
2022/05/25 02:50:43;;;;;;;;;;;;;;;;;;5038663;28;19967;-82
2022/05/25 02:53:11;;;;;;;;;;;;;;;;;;5063389;28;19932;-83
2022/05/25 02:55:37;;;;;;;;;;;;;;;;;;5062420;28;19908;-82
2022/05/25 02:58:02;;;;;;;;;;;;;;;;;;5051247;28;19913;-83
2022/05/25 03:00:28;;;;;;;;;;;;;;;;;;5054813;28;19909;-84
2022/05/25 03:02:56;;;;;;;;;;;;;;;;;;5037195;28;20286;-85
2022/05/25 03:05:21;;;;;;;;;;;;;;;;;;5065386;28;19935;-83
2022/05/25 03:07:47;;;;;;;;;;;;;;;;;;5040062;28;20367;-80
2022/05/25 03:10:13;;;;;;;;;;;;;;;;;;5041933;28;19912;-83
2022/05/25 03:12:38;;;;;;;;;;;;;;;;;;5062493;28;20332;-83
2022/05/25 03:15:03;;;;;;;;;;;;;;;;;;5050873;28;19912;-82
2022/05/25 03:17:29;;;;;;;;;;;;;;;;;;5054726;28;19912;-85
2022/05/25 03:19:54;;;;;;;;;;;;;;;;;;5072586;28;20007;-85
2022/05/25 03:22:19;;;;;;;;;;;;;;;;;;5045426;28;20358;-85
2022/05/25 03:24:45;;;;;;;;;;;;;;;;;;5062387;28;19920;-86
2022/05/25 03:27:10;;;;;;;;;;;;;;;;;;5058545;28;20426;-82
2022/05/25 03:29:35;;;;;;;;;;;;;;;;;;5052662;28;20360;-82
2022/05/25 03:32:01;;;;;;;;;;;;;;;;;;5035489;28;19909;-84
2022/05/25 03:34:26;;;;;;;;;;;;;;;;;;5052263;28;19909;-82
2022/05/25 03:36:55;;;;;;;;;;;;;;;;;;5070530;28;20290;-82
2022/05/25 03:39:20;;;;;;;;;;;;;;;;;;5018736;28;19909;-82
2022/05/25 03:41:47;;;;;;;;;;;;;;;;;;5050769;28;19919;-82
2022/05/25 03:44:12;;;;;;;;;;;;;;;;;;5042226;28;20005;-83
2022/05/25 03:46:38;;;;;;;;;;;;;;;;;;5054745;28;20393;-79
2022/05/25 03:49:03;;;;;;;;;;;;;;;;;;5065978;28;19915;-80
2022/05/25 03:51:29;;;;;;;;;;;;;;;;;;5045201;28;20387;-83
2022/05/25 03:53:54;;;;;;;;;;;;;;;;;;5074172;28;19912;-84
2022/05/25 03:56:20;;;;;;;;;;;;;;;;;;5062581;28;19909;-83
2022/05/25 03:58:46;;;;;;;;;;;;;;;;;;5036343;28;19962;-82
2022/05/25 04:01:12;;;;;;;;;;;;;;;;;;5052557;28;20000;-82
2022/05/25 04:03:37;;;;;;;;;;;;;;;;;;5064699;28;19948;-82
2022/05/25 04:06:02;;;;;;;;;;;;;;;;;;5051742;28;19912;-83
2022/05/25 04:08:28;;;;;;;;;;;;;;;;;;5051507;28;20424;-81
2022/05/25 04:10:53;;;;;;;;;;;;;;;;;;5021289;28;19919;-83
2022/05/25 04:13:20;;;;;;;;;;;;;;;;;;5030146;28;19983;-82
2022/05/25 04:15:45;;;;;;;;;;;;;;;;;;5066970;28;20499;-83
2022/05/25 04:18:11;;;;;;;;;;;;;;;;;;5029088;28;19909;-83
2022/05/25 04:20:36;;;;;;;;;;;;;;;;;;5074715;28;19970;-82
2022/05/25 04:23:02;;;;;;;;;;;;;;;;;;5058276;28;19908;-83
2022/05/25 04:25:28;;;;;;;;;;;;;;;;;;5068854;28;19919;-83
2022/05/25 04:27:53;;;;;;;;;;;;;;;;;;5076322;28;19936;-83
2022/05/25 04:30:18;;;;;;;;;;;;;;;;;;5035693;28;19912;-84
2022/05/25 04:32:44;;;;;;;;;;;;;;;;;;5043187;28;19972;-80
2022/05/25 04:35:10;;;;;;;;;;;;;;;;;;5066202;28;20007;-83
2022/05/25 04:40:20;;;;;;;;;;;;;;;;;;5040449;28;19908;-84
2022/05/25 04:42:46;;;;;;;;;;;;;;;;;;5040096;28;19908;-83
2022/05/25 04:45:11;;;;;;;;;;;;;;;;;;5055454;28;19919;-83
2022/05/25 04:47:37;;;;;;;;;;;;;;;;;;5064969;28;19915;-81
2022/05/25 04:50:03;;;;;;;;;;;;;;;;;;5041954;28;19980;-83
2022/05/25 04:52:30;;;;;;;;;;;;;;;;;;5043460;28;19984;-84
2022/05/25 04:54:55;;;;;;;;;;;;;;;;;;5012410;28;20319;-80
2022/05/25 04:57:20;;;;;;;;;;;;;;;;;;5021559;28;19927;-81
2022/05/25 04:59:46;;;;;;;;;;;;;;;;;;5075334;28;19919;-85
2022/05/25 05:02:12;;;;;;;;;;;;;;;;;;5054718;28;19967;-84
2022/05/25 05:04:37;;;;;;;;;;;;;;;;;;5038287;28;20378;-84
2022/05/25 05:07:03;;;;;;;;;;;;;;;;;;5041252;28;19930;-85
2022/05/25 05:09:28;;;;;;;;;;;;;;;;;;5031714;28;20435;-85
2022/05/25 05:11:54;;;;;;;;;;;;;;;;;;5004583;28;19993;-86
2022/05/25 05:14:19;;;;;;;;;;;;;;;;;;5024675;28;19909;-85
2022/05/25 05:16:44;;;;;;;;;;;;;;;;;;5008416;28;19912;-85
2022/05/25 05:19:21;;;;;;;;;;;;;;;;;;5039319;28;20393;-86
2022/05/25 05:21:58;;;;;;;;;;;;;;;;;;5069286;28;19912;-84
2022/05/25 05:24:24;;;;;;;;;;;;;;;;;;5061564;28;20414;-84
2022/05/25 05:26:49;;;;;;;;;;;;;;;;;;5067995;28;20336;-85
2022/05/25 05:29:14;;;;;;;;;;;;;;;;;;5073921;28;20298;-84
2022/05/25 05:31:40;;;;;;;;;;;;;;;;;;5071670;28;20291;-84
2022/05/25 05:34:06;;;;;;;;;;;;;;;;;;5078002;28;20374;-84
2022/05/25 05:36:31;;;;;;;;;;;;;;;;;;5062229;28;19956;-83
2022/05/25 05:38:56;;;;;;;;;;;;;;;;;;5067679;28;19915;-83
2022/05/25 05:41:22;;;;;;;;;;;;;;;;;;5070101;28;19930;-81
2022/05/25 05:43:47;;;;;;;;;;;;;;;;;;5061434;28;19909;-85
2022/05/25 05:46:12;;;;;;;;;;;;;;;;;;5031687;28;19912;-83
2022/05/25 05:48:38;;;;;;;;;;;;;;;;;;5051918;28;19908;-82
2022/05/25 05:51:04;;;;;;;;;;;;;;;;;;5064133;28;19913;-79
2022/05/25 05:53:29;;;;;;;;;;;;;;;;;;5056107;28;19951;-85
2022/05/25 05:55:54;;;;;;;;;;;;;;;;;;5048075;28;20619;-83
2022/05/25 05:58:20;;;;;;;;;;;;;;;;;;5056625;28;19923;-84
2022/05/25 06:00:45;;;;;;;;;;;;;;;;;;5078687;28;19904;-83
2022/05/25 06:03:12;;;;;;;;;;;;;;;;;;5061182;28;19944;-83
2022/05/25 06:05:37;;;;;;;;;;;;;;;;;;5072130;28;19943;-82
2022/05/25 06:08:03;;;;;;;;;;;;;;;;;;5051003;28;19909;-84
2022/05/25 06:10:31;;;;;;;;;;;;;;;;;;5050681;28;19920;-83
2022/05/25 06:12:57;;;;;;;;;;;;;;;;;;5062882;28;19909;-85
2022/05/25 06:20:51;;;;;;;;;;;;;;;;;;5077506;28;19909;-85
2022/05/25 06:23:16;;;;;;;;;;;;;;;;;;5058203;28;19915;-86
2022/05/25 06:25:41;;;;;;;;;;;;;;;;;;5076489;28;20224;-86
2022/05/25 06:28:07;;;;;;;;;;;;;;;;;;5063355;28;19912;-86
2022/05/25 06:30:32;;;;;;;;;;;;;;;;;;5052843;28;20363;-87
2022/05/25 06:32:58;;;;;;;;;;;;;;;;;;5051478;28;19917;-86
2022/05/25 06:35:23;;;;;;;;;;;;;;;;;;5076362;28;19908;-85
2022/05/25 06:37:49;;;;;;;;;;;;;;;;;;5056947;28;19908;-87
2022/05/25 06:40:14;;;;;;;;;;;;;;;;;;5299985;22;19920;-92
2022/05/25 06:42:41;;;;;;;;;;;;;;;;;;5065525;28;20380;-92
2022/05/25 06:45:11;;;;;;;;;;;;;;;;;;5030002;28;19917;-89
2022/05/25 06:47:37;;;;;;;;;;;;;;;;;;5030325;28;19916;-91
2022/05/25 06:50:06;;;;;;;;;;;;;;;;;;5041293;28;19908;-90
2022/05/25 06:52:31;;;;;;;;;;;;;;;;;;5051248;28;19969;-91
2022/05/25 06:54:56;;;;;;;;;;;;;;;;;;5060257;28;19939;-92
2022/05/25 06:57:22;;;;;;;;;;;;;;;;;;5051199;28;19916;-91
2022/05/25 06:59:47;;;;;;;;;;;;;;;;;;5046170;28;19912;-90
2022/05/25 07:02:13;;;;;;;;;;;;;;;;;;5065023;28;19913;-91
2022/05/25 07:04:39;;;;;;;;;;;;;;;;;;5022945;28;20375;-89
2022/05/25 07:07:04;;;;;;;;;;;;;;;;;;5060540;28;19913;-91
2022/05/25 07:09:33;;;;;;;;;;;;;;;;;;5070858;28;19915;-90
2022/05/25 07:11:59;;;;;;;;;;;;;;;;;;5033797;28;19908;-88
2022/05/25 07:14:26;;;;;;;;;;;;;;;;;;5035432;28;19953;-89
2022/05/25 07:16:58;;;;;;;;;;;;;;;;;;5024717;28;19912;-91
2022/05/25 07:19:23;;;;;;;;;;;;;;;;;;5029534;28;20331;-90
2022/05/25 07:21:49;;;;;;;;;;;;;;;;;;5048086;28;19916;-88
2022/05/25 07:24:17;;;;;;;;;;;;;;;;;;5051767;28;19909;-89
2022/05/25 07:26:43;;;;;;;;;;;;;;;;;;5036573;28;20375;-89
2022/05/25 07:29:08;;;;;;;;;;;;;;;;;;5044760;28;19909;-85
2022/05/25 07:31:34;;;;;;;;;;;;;;;;;;5033623;28;19927;-85
2022/05/25 07:33:59;;;;;;;;;;;;;;;;;;5052085;28;19916;-87
2022/05/25 07:36:24;;;;;;;;;;;;;;;;;;5059189;28;19926;-83
2022/05/25 07:38:50;;;;;;;;;;;;;;;;;;5075973;28;19903;-87
2022/05/25 07:41:17;;;;;;;;;;;;;;;;;;5061354;28;19900;-80
2022/05/25 07:43:42;;;;;;;;;;;;;;;;;;5106216;28;19912;-79
2022/05/25 07:46:08;;;;;;;;;;;;;;;;;;5116929;28;19971;-81
2022/05/25 07:48:34;;;;;;;;;;;;;;;;;;5116022;28;19911;-80
2022/05/25 07:50:59;;;;;;;;;;;;;;;;;;5134078;28;19942;-81
2022/05/25 07:56:09;;;;;;;;;;;;;;;;;;5100849;28;20093;-79
2022/05/25 07:58:35;;;;;;;;;;;;;;;;;;5096932;28;19908;-78
2022/05/25 08:01:03;;;;;;;;;;;;;;;;;;5110179;28;20385;-79
2022/05/25 08:06:12;;;;;;;;;;;;;;;;;;5109287;28;19915;-79
2022/05/25 08:08:37;;;;;;;;;;;;;;;;;;5100156;28;19908;-79
2022/05/25 08:11:03;;;;;;;;;;;;;;;;;;5113126;28;19934;-78
2022/05/25 08:13:30;;;;;;;;;;;;;;;;;;5081598;28;19908;-79
2022/05/25 08:15:55;;;;;;;;;;;;;;;;;;5088821;28;19947;-79
2022/05/25 08:18:21;;;;;;;;;;;;;;;;;;5106420;28;19915;-79
2022/05/25 08:20:47;;;;;;;;;;;;;;;;;;5112370;28;20002;-80
2022/05/25 08:23:12;;;;;;;;;;;;;;;;;;5097660;28;20004;-81
2022/05/25 08:25:38;;;;;;;;;;;;;;;;;;5089780;28;20428;-78
2022/05/25 08:28:03;;;;;;;;;;;;;;;;;;5103978;28;19911;-79
2022/05/25 08:30:28;;;;;;;;;;;;;;;;;;5114116;28;19904;-75
2022/05/25 08:32:54;;;;;;;;;;;;;;;;;;5113078;28;19973;-74
2022/05/25 08:35:20;;;;;;;;;;;;;;;;;;5105661;28;19959;-75
2022/05/25 08:37:46;;;;;;;;;;;;;;;;;;5103977;28;20426;-74
2022/05/25 08:40:11;;;;;;;;;;;;;;;;;;5063132;28;19912;-75
2022/05/25 08:42:36;;;;;;;;;;;;;;;;;;5088121;28;19959;-75
2022/05/25 08:45:02;;;;;;;;;;;;;;;;;;5084439;28;20004;-74
2022/05/25 08:47:27;;;;;;;;;;;;;;;;;;5086850;28;19947;-74
2022/05/25 08:49:54;;;;;;;;;;;;;;;;;;5076125;28;19926;-74
2022/05/25 08:52:20;;;;;;;;;;;;;;;;;;5071034;28;19914;-74
2022/05/25 08:54:47;;;;;;;;;;;;;;;;;;5077949;28;19909;-77
2022/05/25 08:57:13;;;;;;;;;;;;;;;;;;5088590;28;19927;-75
2022/05/25 08:59:38;;;;;;;;;;;;;;;;;;5076443;28;19908;-75
2022/05/25 09:02:04;;;;;;;;;;;;;;;;;;5037005;28;19909;-74
2022/05/25 09:04:34;;;;;;;;;;;;;;;;;;5084999;28;20385;-75
2022/05/25 09:06:59;;;;;;;;;;;;;;;;;;5076155;28;19912;-75
2022/05/25 09:09:30;;;;;;;;;;;;;;;;;;5086525;28;19915;-75
2022/05/25 09:11:56;;;;;;;;;;;;;;;;;;5083308;28;19924;-74
2022/05/25 09:14:21;;;;;;;;;;;;;;;;;;5078521;28;19915;-76
2022/05/25 09:16:47;;;;;;;;;;;;;;;;;;5087885;28;19969;-75
2022/05/25 09:19:12;;;;;;;;;;;;;;;;;;5084308;28;19970;-74
2022/05/25 09:21:37;;;;;;;;;;;;;;;;;;5093889;28;20339;-74
2022/05/25 09:24:03;;;;;;;;;;;;;;;;;;5090937;28;19908;-74
2022/05/25 09:26:28;;;;;;;;;;;;;;;;;;5078334;28;19957;-75
2022/05/25 09:28:54;;;;;;;;;;;;;;;;;;5090112;28;20396;-74
2022/05/25 09:31:20;;;;;;;;;;;;;;;;;;5079096;28;20408;-75
2022/05/25 09:33:46;;;;;;;;;;;;;;;;;;5083399;28;19936;-75
2022/05/25 09:36:11;;;;;;;;;;;;;;;;;;5062735;28;20003;-75
2022/05/25 09:38:37;;;;;;;;;;;;;;;;;;5091406;28;19935;-76
2022/05/25 09:41:02;;;;;;;;;;;;;;;;;;5104917;28;19912;-74
2022/05/25 09:43:27;;;;;;;;;;;;;;;;;;5088988;28;19915;-76
2022/05/25 09:45:53;;;;;;;;;;;;;;;;;;5104003;28;19922;-74
2022/05/25 09:48:18;;;;;;;;;;;;;;;;;;5099413;28;19908;-74
2022/05/25 09:50:44;;;;;;;;;;;;;;;;;;5061437;28;19912;-74
2022/05/25 09:53:09;;;;;;;;;;;;;;;;;;5089218;28;19908;-74
2022/05/25 09:55:37;;;;;;;;;;;;;;;;;;5093057;28;19908;-76
2022/05/25 09:58:02;;;;;;;;;;;;;;;;;;5101594;28;19961;-74
2022/05/25 10:00:28;;;;;;;;;;;;;;;;;;5108436;28;19907;-75
2022/05/25 10:02:53;;;;;;;;;;;;;;;;;;5096812;28;19911;-76
2022/05/25 10:05:19;;;;;;;;;;;;;;;;;;5089757;28;20282;-76
2022/05/25 10:07:44;;;;;;;;;;;;;;;;;;5099524;28;19915;-74
2022/05/25 10:10:09;;;;;;;;;;;;;;;;;;5080091;28;20412;-74
2022/05/25 10:12:35;;;;;;;;;;;;;;;;;;5112251;28;19986;-87
2022/05/25 10:15:00;;;;;;;;;;;;;;;;;;5083343;28;19959;-86
2022/05/25 10:17:26;;;;;;;;;;;;;;;;;;5081221;28;19915;-86
2022/05/25 10:19:51;;;;;;;;;;;;;;;;;;5073433;28;19912;-82
2022/05/25 10:22:16;;;;;;;;;;;;;;;;;;5107775;28;19915;-82
2022/05/25 10:24:42;;;;;;;;;;;;;;;;;;5092178;28;19919;-84
2022/05/25 10:27:07;;;;;;;;;;;;;;;;;;5097298;28;19914;-85
2022/05/25 10:37:52;;;;;;;;;;;;;;;;;;5058569;28;19916;-86
2022/05/25 10:40:18;;;;;;;;;;;;;;;;;;5058128;28;19912;-84
2022/05/25 10:42:46;;;;;;;;;;;;;;;;;;5087474;28;19988;-80
2022/05/25 10:45:12;;;;;;;;;;;;;;;;;;5076821;28;19920;-82
2022/05/25 10:47:37;;;;;;;;;;;;;;;;;;5074616;28;19908;-82
2022/05/25 10:50:02;;;;;;;;;;;;;;;;;;5093789;28;20378;-83
2022/05/25 10:52:28;;;;;;;;;;;;;;;;;;5066632;28;19909;-81
2022/05/25 10:54:55;;;;;;;;;;;;;;;;;;5107806;28;20326;-81
2022/05/25 10:57:21;;;;;;;;;;;;;;;;;;5061268;28;19908;-83
2022/05/25 10:59:46;;;;;;;;;;;;;;;;;;5103470;28;19912;-86
2022/05/25 11:02:12;;;;;;;;;;;;;;;;;;5100662;28;20433;-85
2022/05/25 11:04:37;;;;;;;;;;;;;;;;;;5070470;28;19915;-84
2022/05/25 11:07:02;;;;;;;;;;;;;;;;;;5093172;28;19912;-83
2022/05/25 11:09:27;;;;;;;;;;;;;;;;;;5093576;28;19908;-83
2022/05/25 11:11:53;;;;;;;;;;;;;;;;;;5068254;28;19992;-84
2022/05/25 11:14:18;;;;;;;;;;;;;;;;;;5074196;28;20324;-82
2022/05/25 11:16:44;;;;;;;;;;;;;;;;;;5091232;28;19918;-81
2022/05/25 11:19:09;;;;;;;;;;;;;;;;;;5110460;28;19907;-82
2022/05/25 11:21:36;;;;;;;;;;;;;;;;;;5083040;28;19909;-80
2022/05/25 11:24:01;;;;;;;;;;;;;;;;;;5084271;28;20286;-82
2022/05/25 11:26:26;;;;;;;;;;;;;;;;;;5089327;28;19912;-81
2022/05/25 11:28:52;;;;;;;;;;;;;;;;;;5069048;28;19915;-81
2022/05/25 11:31:17;;;;;;;;;;;;;;;;;;5111327;28;19907;-82
2022/05/25 11:33:43;;;;;;;;;;;;;;;;;;5054381;28;20375;-83
2022/05/25 11:36:08;;;;;;;;;;;;;;;;;;5080254;28;19999;-83
2022/05/25 11:38:33;;;;;;;;;;;;;;;;;;5092407;28;19912;-85
2022/05/25 11:40:59;;;;;;;;;;;;;;;;;;5091749;28;20298;-79
2022/05/25 11:43:24;;;;;;;;;;;;;;;;;;5089247;28;19908;-78
2022/05/25 11:45:50;;;;;;;;;;;;;;;;;;5103395;28;20297;-81
2022/05/25 11:48:16;;;;;;;;;;;;;;;;;;5075796;28;20369;-82
2022/05/25 11:50:41;;;;;;;;;;;;;;;;;;5091033;28;19987;-82
2022/05/25 11:53:08;;;;;;;;;;;;;;;;;;5095943;28;19955;-82
2022/05/25 11:55:34;;;;;;;;;;;;;;;;;;5049785;28;19923;-82
2022/05/25 11:58:02;;;;;;;;;;;;;;;;;;5086315;28;19908;-79
2022/05/25 12:00:27;;;;;;;;;;;;;;;;;;5103231;28;20360;-82
2022/05/25 12:02:52;;;;;;;;;;;;;;;;;;5074866;28;19908;-82
2022/05/25 12:05:18;;;;;;;;;;;;;;;;;;5090221;28;19937;-82
2022/05/25 12:07:43;;;;;;;;;;;;;;;;;;5084501;28;20290;-81
2022/05/25 12:10:09;;;;;;;;;;;;;;;;;;5064762;28;19904;-80
2022/05/25 12:12:34;;;;;;;;;;;;;;;;;;5107812;28;19987;-83
2022/05/25 12:15:10;;;;;;;;;;;;;;;;;;5059502;28;20511;-82
2022/05/25 12:18:19;;;;;;;;;;;;;;;;;;5108642;28;20408;-83
2022/05/25 12:20:44;;;;;;;;;;;;;;;;;;5108217;28;19912;-81
2022/05/25 12:23:12;;;;;;;;;;;;;;;;;;5075181;28;19915;-79
2022/05/25 12:25:37;;;;;;;;;;;;;;;;;;5102427;28;19919;-82
2022/05/25 12:28:02;;;;;;;;;;;;;;;;;;5086237;28;19908;-83
2022/05/25 12:30:28;;;;;;;;;;;;;;;;;;5097370;28;19948;-84
2022/05/25 12:32:53;;;;;;;;;;;;;;;;;;5099102;28;20381;-83
2022/05/25 12:35:19;;;;;;;;;;;;;;;;;;5083930;28;19915;-83
2022/05/25 12:37:44;;;;;;;;;;;;;;;;;;5097014;28;19923;-84
2022/05/25 12:40:10;;;;;;;;;;;;;;;;;;5111310;28;20312;-84
2022/05/25 12:42:35;;;;;;;;;;;;;;;;;;5099538;28;19908;-84
2022/05/25 12:50:54;;;;;;;;;;;;;;;;;;5107522;28;20374;-79
2022/05/25 12:53:20;;;;;;;;;;;;;;;;;;5111551;22;19921;-82
2022/05/25 12:55:45;;;;;;;;;;;;;;;;;;5097628;28;19912;-83
2022/05/25 12:58:10;;;;;;;;;;;;;;;;;;5080942;28;20413;-82
2022/05/25 13:00:36;;;;;;;;;;;;;;;;;;5080235;28;19918;-82
2022/05/25 13:03:01;;;;;;;;;;;;;;;;;;5076600;28;20375;-83
2022/05/25 13:05:28;;;;;;;;;;;;;;;;;;5071284;28;20340;-81
2022/05/25 13:07:53;;;;;;;;;;;;;;;;;;5071811;28;19909;-82
2022/05/25 13:10:19;;;;;;;;;;;;;;;;;;5056370;28;20442;-81
2022/05/25 13:12:46;;;;;;;;;;;;;;;;;;5058438;28;19912;-83
2022/05/25 13:15:12;;;;;;;;;;;;;;;;;;5094624;28;20381;-82
2022/05/25 13:17:37;;;;;;;;;;;;;;;;;;5074616;28;19908;-82
2022/05/25 13:20:07;;;;;;;;;;;;;;;;;;5044348;28;19935;-83
2022/05/25 13:22:33;;;;;;;;;;;;;;;;;;5041942;28;19915;-82
2022/05/25 13:24:58;;;;;;;;;;;;;;;;;;5056011;28;20371;-82
2022/05/25 13:27:23;;;;;;;;;;;;;;;;;;5039200;28;20333;-85
2022/05/25 13:29:49;;;;;;;;;;;;;;;;;;5033580;28;19908;-83
2022/05/25 13:32:14;;;;;;;;;;;;;;;;;;5076247;28;19952;-86
2022/05/25 13:34:39;;;;;;;;;;;;;;;;;;5090864;28;19935;-86
2022/05/25 13:37:13;;;;;;;;;;;;;;;;;;5072524;28;19916;-83
2022/05/25 13:39:39;;;;;;;;;;;;;;;;;;5073490;28;19931;-85
2022/05/25 13:42:04;;;;;;;;;;;;;;;;;;5094944;28;20366;-86
2022/05/25 13:44:31;;;;;;;;;;;;;;;;;;5094891;28;19930;-85
2022/05/25 13:46:57;;;;;;;;;;;;;;;;;;5057389;28;19908;-83
2022/05/25 13:49:22;;;;;;;;;;;;;;;;;;5089913;28;20344;-83
2022/05/25 13:51:48;;;;;;;;;;;;;;;;;;5093698;28;19904;-83
2022/05/25 13:54:13;;;;;;;;;;;;;;;;;;5071977;28;19909;-83
2022/05/25 13:56:38;;;;;;;;;;;;;;;;;;5090628;28;20077;-83
2022/05/25 13:59:04;;;;;;;;;;;;;;;;;;5071982;28;19915;-84
2022/05/25 14:01:30;;;;;;;;;;;;;;;;;;5072645;28;19908;-84
2022/05/25 14:03:55;;;;;;;;;;;;;;;;;;5055585;28;19908;-82
2022/05/25 14:12:18;;;;;;;;;;;;;;;;;;5052914;28;19944;-82
2022/05/25 14:14:43;;;;;;;;;;;;;;;;;;5077006;28;19962;-83
2022/05/25 14:17:09;;;;;;;;;;;;;;;;;;5093205;28;19908;-83
2022/05/25 14:19:34;;;;;;;;;;;;;;;;;;5093175;28;19961;-84
2022/05/25 14:21:59;;;;;;;;;;;;;;;;;;5072045;28;19908;-83
2022/05/25 14:24:25;;;;;;;;;;;;;;;;;;5072879;28;19954;-83
2022/05/25 14:26:50;;;;;;;;;;;;;;;;;;5075498;28;19919;-83
2022/05/25 14:29:16;;;;;;;;;;;;;;;;;;5053915;28;20321;-82
2022/05/25 14:31:41;;;;;;;;;;;;;;;;;;5091435;28;19908;-82
2022/05/25 14:34:06;;;;;;;;;;;;;;;;;;5071530;28;19999;-82
2022/05/25 14:36:32;;;;;;;;;;;;;;;;;;5067335;28;20236;-79
2022/05/25 14:38:57;;;;;;;;;;;;;;;;;;5076995;28;20282;-80
2022/05/25 14:41:23;;;;;;;;;;;;;;;;;;5067751;28;20294;-80
2022/05/25 14:43:48;;;;;;;;;;;;;;;;;;5063513;28;20362;-80
2022/05/25 14:46:17;;;;;;;;;;;;;;;;;;5092201;28;20294;-80
2022/05/25 14:48:42;;;;;;;;;;;;;;;;;;5093053;28;19955;-79
2022/05/25 14:51:08;;;;;;;;;;;;;;;;;;5057906;28;20290;-80
2022/05/25 14:53:33;;;;;;;;;;;;;;;;;;5092744;28;19912;-80
2022/05/25 14:56:01;;;;;;;;;;;;;;;;;;5054467;28;20363;-80
2022/05/25 14:58:27;;;;;;;;;;;;;;;;;;5089892;28;20006;-79
2022/05/25 15:00:52;;;;;;;;;;;;;;;;;;5064068;28;19959;-83
2022/05/25 15:03:19;;;;;;;;;;;;;;;;;;5072932;28;20321;-83
2022/05/25 15:05:46;;;;;;;;;;;;;;;;;;5085511;28;19920;-82
2022/05/25 15:08:11;;;;;;;;;;;;;;;;;;5053821;28;19915;-82
2022/05/25 15:10:37;;;;;;;;;;;;;;;;;;5073532;28;20295;-81
2022/05/25 15:13:02;;;;;;;;;;;;;;;;;;5069573;28;19908;-82
2022/05/25 15:20:52;;;;;;;;;;;;;;;;;;5074626;28;19912;-83
2022/05/25 15:23:18;;;;;;;;;;;;;;;;;;5088368;28;19904;-82
2022/05/25 15:25:43;;;;;;;;;;;;;;;;;;5093263;28;20439;-82
2022/05/25 15:28:09;;;;;;;;;;;;;;;;;;5092545;28;19908;-81
2022/05/25 15:30:34;;;;;;;;;;;;;;;;;;5092072;28;19908;-82
2022/05/25 15:33:00;;;;;;;;;;;;;;;;;;5091793;28;19908;-80
2022/05/25 15:35:25;;;;;;;;;;;;;;;;;;5091912;28;19908;-80
2022/05/25 15:37:51;;;;;;;;;;;;;;;;;;5053522;28;20409;-82
2022/05/25 15:40:16;;;;;;;;;;;;;;;;;;5085479;28;20285;-80
2022/05/25 15:42:42;;;;;;;;;;;;;;;;;;5038241;28;20374;-80
2022/05/25 15:45:07;;;;;;;;;;;;;;;;;;5093147;28;20267;-81
2022/05/25 15:47:32;;;;;;;;;;;;;;;;;;5073119;28;19908;-79
2022/05/25 15:49:58;;;;;;;;;;;;;;;;;;5093838;28;20402;-80
2022/05/25 15:52:23;;;;;;;;;;;;;;;;;;5072421;28;20363;-80
2022/05/25 15:54:49;;;;;;;;;;;;;;;;;;5058319;28;20370;-81
2022/05/25 15:57:14;;;;;;;;;;;;;;;;;;5091922;28;19912;-81
2022/05/25 15:59:42;;;;;;;;;;;;;;;;;;5041768;28;19912;-80
2022/05/25 16:02:08;;;;;;;;;;;;;;;;;;5072512;28;19908;-81
2022/05/25 16:04:33;;;;;;;;;;;;;;;;;;5075773;28;20375;-80
2022/05/25 16:06:59;;;;;;;;;;;;;;;;;;5071395;28;20454;-81
2022/05/25 16:09:24;;;;;;;;;;;;;;;;;;5054945;28;19931;-82
2022/05/25 16:11:50;;;;;;;;;;;;;;;;;;5094129;28;19939;-81
2022/05/25 16:14:15;;;;;;;;;;;;;;;;;;5064975;28;19918;-80
2022/05/25 16:16:43;;;;;;;;;;;;;;;;;;5060841;28;20294;-81
2022/05/25 16:19:10;;;;;;;;;;;;;;;;;;5075310;28;19908;-80
2022/05/25 16:21:36;;;;;;;;;;;;;;;;;;5096343;28;19909;-82
2022/05/25 16:24:03;;;;;;;;;;;;;;;;;;5074943;28;19915;-80
2022/05/25 16:26:28;;;;;;;;;;;;;;;;;;5073941;28;19912;-80
2022/05/25 16:28:54;;;;;;;;;;;;;;;;;;5072501;28;19912;-80
2022/05/25 16:31:19;;;;;;;;;;;;;;;;;;5090500;28;19908;-81
2022/05/25 16:33:44;;;;;;;;;;;;;;;;;;5095359;28;20322;-81
2022/05/25 16:36:10;;;;;;;;;;;;;;;;;;5057231;28;19947;-81
2022/05/25 16:38:35;;;;;;;;;;;;;;;;;;5075475;28;19909;-83
2022/05/25 16:41:01;;;;;;;;;;;;;;;;;;5061368;28;19986;-81
2022/05/25 16:43:26;;;;;;;;;;;;;;;;;;5054848;28;19976;-82
2022/05/25 16:45:51;;;;;;;;;;;;;;;;;;5047136;28;19912;-82
2022/05/25 16:48:17;;;;;;;;;;;;;;;;;;5089344;28;19914;-81
2022/05/25 16:50:42;;;;;;;;;;;;;;;;;;5075783;28;20095;-82
2022/05/25 16:53:08;;;;;;;;;;;;;;;;;;5073516;28;19912;-82
2022/05/25 16:55:33;;;;;;;;;;;;;;;;;;5092251;28;19915;-81
2022/05/25 16:57:59;;;;;;;;;;;;;;;;;;5095983;28;19908;-81
2022/05/25 17:00:28;;;;;;;;;;;;;;;;;;5074814;28;19908;-82
2022/05/25 17:02:53;;;;;;;;;;;;;;;;;;5094574;28;19914;-80
2022/05/25 17:05:20;;;;;;;;;;;;;;;;;;5092848;28;20018;-81
2022/05/25 17:07:45;;;;;;;;;;;;;;;;;;5094000;28;19908;-81
2022/05/25 17:10:10;;;;;;;;;;;;;;;;;;5094237;28;20244;-81
2022/05/25 17:12:36;;;;;;;;;;;;;;;;;;5074267;28;20366;-82
2022/05/25 17:15:01;;;;;;;;;;;;;;;;;;5094105;28;20298;-83